sensor_id;sensor_type;location;lat;lon;timestamp;P1;durP1;ratioP1;P2;durP2;ratioP2
56285;SDS011;42191;47.562;9.686;2022-10-16T00:02:06;31.30;;;29.27;;
56285;SDS011;42191;47.562;9.686;2022-10-16T00:04:32;30.45;;;28.63;;
56285;SDS011;42191;47.562;9.686;2022-10-16T00:06:58;33.60;;;31.52;;
56285;SDS011;42191;47.562;9.686;2022-10-16T00:09:24;33.38;;;31.27;;
56285;SDS011;42191;47.562;9.686;2022-10-16T00:11:51;31.58;;;29.67;;
56285;SDS011;42191;47.562;9.686;2022-10-16T00:14:17;33.45;;;31.25;;
56285;SDS011;42191;47.562;9.686;2022-10-16T00:16:43;32.30;;;30.30;;
56285;SDS011;42191;47.562;9.686;2022-10-16T00:19:09;32.88;;;30.80;;
56285;SDS011;42191;47.562;9.686;2022-10-16T00:21:37;31.23;;;29.13;;
56285;SDS011;42191;47.562;9.686;2022-10-16T00:24:06;32.20;;;30.20;;
56285;SDS011;42191;47.562;9.686;2022-10-16T00:26:34;30.42;;;28.63;;
56285;SDS011;42191;47.562;9.686;2022-10-16T00:29:01;32.47;;;30.13;;
56285;SDS011;42191;47.562;9.686;2022-10-16T00:31:28;33.47;;;31.17;;
56285;SDS011;42191;47.562;9.686;2022-10-16T00:33:54;32.28;;;29.98;;
56285;SDS011;42191;47.562;9.686;2022-10-16T00:36:21;32.17;;;29.90;;
56285;SDS011;42191;47.562;9.686;2022-10-16T00:38:50;32.25;;;30.13;;
56285;SDS011;42191;47.562;9.686;2022-10-16T00:41:20;31.33;;;29.38;;
56285;SDS011;42191;47.562;9.686;2022-10-16T00:46:19;31.25;;;29.35;;
56285;SDS011;42191;47.562;9.686;2022-10-16T00:48:56;30.05;;;28.17;;
56285;SDS011;42191;47.562;9.686;2022-10-16T00:51:24;31.30;;;29.20;;
56285;SDS011;42191;47.562;9.686;2022-10-16T00:53:54;32.17;;;30.08;;
56285;SDS011;42191;47.562;9.686;2022-10-16T00:56:21;32.33;;;30.38;;
56285;SDS011;42191;47.562;9.686;2022-10-16T00:58:47;30.35;;;28.45;;
56285;SDS011;42191;47.562;9.686;2022-10-16T01:01:13;32.90;;;30.90;;
56285;SDS011;42191;47.562;9.686;2022-10-16T01:03:39;32.63;;;30.50;;
56285;SDS011;42191;47.562;9.686;2022-10-16T01:08:52;32.40;;;30.30;;
56285;SDS011;42191;47.562;9.686;2022-10-16T01:11:28;33.50;;;31.40;;
56285;SDS011;42191;47.562;9.686;2022-10-16T01:14:00;31.33;;;29.45;;
56285;SDS011;42191;47.562;9.686;2022-10-16T01:16:43;31.90;;;29.90;;
56285;SDS011;42191;47.562;9.686;2022-10-16T01:19:16;31.75;;;29.75;;
56285;SDS011;42191;47.562;9.686;2022-10-16T01:21:51;31.83;;;29.92;;
56285;SDS011;42191;47.562;9.686;2022-10-16T01:27:05;30.55;;;28.65;;
56285;SDS011;42191;47.562;9.686;2022-10-16T01:29:42;31.35;;;29.45;;
56285;SDS011;42191;47.562;9.686;2022-10-16T01:32:24;32.65;;;30.63;;
56285;SDS011;42191;47.562;9.686;2022-10-16T01:40:36;32.25;;;29.33;;
56285;SDS011;42191;47.562;9.686;2022-10-16T01:43:12;31.58;;;29.50;;
56285;SDS011;42191;47.562;9.686;2022-10-16T01:45:42;30.45;;;28.45;;
56285;SDS011;42191;47.562;9.686;2022-10-16T01:48:11;30.65;;;28.75;;
56285;SDS011;42191;47.562;9.686;2022-10-16T01:50:41;32.22;;;30.33;;
56285;SDS011;42191;47.562;9.686;2022-10-16T01:53:09;32.70;;;30.70;;
56285;SDS011;42191;47.562;9.686;2022-10-16T01:55:43;32.65;;;30.75;;
56285;SDS011;42191;47.562;9.686;2022-10-16T01:58:12;32.95;;;30.83;;
56285;SDS011;42191;47.562;9.686;2022-10-16T02:00:39;31.88;;;29.67;;
56285;SDS011;42191;47.562;9.686;2022-10-16T02:03:08;32.20;;;30.20;;
56285;SDS011;42191;47.562;9.686;2022-10-16T02:05:41;31.75;;;29.65;;
56285;SDS011;42191;47.562;9.686;2022-10-16T02:08:08;33.15;;;31.13;;
56285;SDS011;42191;47.562;9.686;2022-10-16T02:10:35;31.77;;;29.67;;
56285;SDS011;42191;47.562;9.686;2022-10-16T02:13:03;30.63;;;28.73;;
56285;SDS011;42191;47.562;9.686;2022-10-16T02:15:34;31.35;;;29.30;;
56285;SDS011;42191;47.562;9.686;2022-10-16T02:18:02;33.65;;;31.55;;
56285;SDS011;42191;47.562;9.686;2022-10-16T02:20:32;31.15;;;29.05;;
56285;SDS011;42191;47.562;9.686;2022-10-16T02:23:16;33.17;;;31.17;;
56285;SDS011;42191;47.562;9.686;2022-10-16T02:28:24;31.20;;;29.27;;
56285;SDS011;42191;47.562;9.686;2022-10-16T02:31:03;33.08;;;31.08;;
56285;SDS011;42191;47.562;9.686;2022-10-16T02:33:33;33.53;;;31.23;;
56285;SDS011;42191;47.562;9.686;2022-10-16T02:36:02;31.73;;;29.75;;
56285;SDS011;42191;47.562;9.686;2022-10-16T02:38:28;31.48;;;29.52;;
56285;SDS011;42191;47.562;9.686;2022-10-16T02:40:56;31.58;;;29.58;;
56285;SDS011;42191;47.562;9.686;2022-10-16T02:43:22;30.35;;;28.23;;
56285;SDS011;42191;47.562;9.686;2022-10-16T02:45:51;31.05;;;29.00;;
56285;SDS011;42191;47.562;9.686;2022-10-16T02:48:17;31.77;;;29.70;;
56285;SDS011;42191;47.562;9.686;2022-10-16T02:50:43;31.20;;;29.23;;
56285;SDS011;42191;47.562;9.686;2022-10-16T02:53:09;31.02;;;29.00;;
56285;SDS011;42191;47.562;9.686;2022-10-16T02:55:35;31.38;;;29.25;;
56285;SDS011;42191;47.562;9.686;2022-10-16T02:58:01;32.78;;;30.77;;
56285;SDS011;42191;47.562;9.686;2022-10-16T03:00:27;30.83;;;28.98;;
56285;SDS011;42191;47.562;9.686;2022-10-16T03:02:53;33.42;;;31.40;;
56285;SDS011;42191;47.562;9.686;2022-10-16T03:05:20;32.35;;;30.25;;
56285;SDS011;42191;47.562;9.686;2022-10-16T03:07:46;32.03;;;30.13;;
56285;SDS011;42191;47.562;9.686;2022-10-16T03:10:12;33.72;;;31.48;;
56285;SDS011;42191;47.562;9.686;2022-10-16T03:12:38;33.25;;;31.13;;
56285;SDS011;42191;47.562;9.686;2022-10-16T03:15:04;31.27;;;29.27;;
56285;SDS011;42191;47.562;9.686;2022-10-16T03:17:31;31.65;;;29.65;;
56285;SDS011;42191;47.562;9.686;2022-10-16T03:19:58;31.48;;;29.25;;
56285;SDS011;42191;47.562;9.686;2022-10-16T03:22:24;29.05;;;27.27;;
56285;SDS011;42191;47.562;9.686;2022-10-16T03:24:50;32.15;;;30.25;;
56285;SDS011;42191;47.562;9.686;2022-10-16T03:27:16;30.50;;;28.65;;
56285;SDS011;42191;47.562;9.686;2022-10-16T03:29:43;29.77;;;28.02;;
56285;SDS011;42191;47.562;9.686;2022-10-16T03:32:09;30.80;;;28.90;;
56285;SDS011;42191;47.562;9.686;2022-10-16T03:34:35;31.52;;;29.42;;
56285;SDS011;42191;47.562;9.686;2022-10-16T03:37:01;33.25;;;31.25;;
56285;SDS011;42191;47.562;9.686;2022-10-16T03:39:27;32.10;;;30.05;;
56285;SDS011;42191;47.562;9.686;2022-10-16T03:41:53;31.38;;;29.52;;
56285;SDS011;42191;47.562;9.686;2022-10-16T03:44:19;32.28;;;30.38;;
56285;SDS011;42191;47.562;9.686;2022-10-16T03:46:46;32.22;;;30.33;;
56285;SDS011;42191;47.562;9.686;2022-10-16T03:49:12;28.77;;;27.08;;
56285;SDS011;42191;47.562;9.686;2022-10-16T03:51:38;31.73;;;29.77;;
56285;SDS011;42191;47.562;9.686;2022-10-16T03:54:04;33.40;;;31.40;;
56285;SDS011;42191;47.562;9.686;2022-10-16T03:56:30;32.50;;;30.60;;
56285;SDS011;42191;47.562;9.686;2022-10-16T03:58:56;32.03;;;30.10;;
56285;SDS011;42191;47.562;9.686;2022-10-16T04:01:23;32.13;;;30.23;;
56285;SDS011;42191;47.562;9.686;2022-10-16T04:03:49;31.70;;;29.75;;
56285;SDS011;42191;47.562;9.686;2022-10-16T04:06:15;32.40;;;30.48;;
56285;SDS011;42191;47.562;9.686;2022-10-16T04:08:44;32.08;;;30.08;;
56285;SDS011;42191;47.562;9.686;2022-10-16T04:11:10;33.10;;;31.10;;
56285;SDS011;42191;47.562;9.686;2022-10-16T04:13:36;31.88;;;29.73;;
56285;SDS011;42191;47.562;9.686;2022-10-16T04:16:02;32.25;;;30.02;;
56285;SDS011;42191;47.562;9.686;2022-10-16T04:18:29;33.13;;;30.90;;
56285;SDS011;42191;47.562;9.686;2022-10-16T04:20:55;32.67;;;30.63;;
56285;SDS011;42191;47.562;9.686;2022-10-16T04:23:21;32.33;;;30.25;;
56285;SDS011;42191;47.562;9.686;2022-10-16T04:25:48;30.25;;;28.45;;
56285;SDS011;42191;47.562;9.686;2022-10-16T04:28:14;31.05;;;29.25;;
56285;SDS011;42191;47.562;9.686;2022-10-16T04:30:40;33.30;;;31.20;;
56285;SDS011;42191;47.562;9.686;2022-10-16T04:33:08;31.75;;;29.85;;
56285;SDS011;42191;47.562;9.686;2022-10-16T04:35:35;31.55;;;29.63;;
56285;SDS011;42191;47.562;9.686;2022-10-16T04:38:01;30.30;;;28.35;;
56285;SDS011;42191;47.562;9.686;2022-10-16T04:40:27;29.63;;;27.83;;
56285;SDS011;42191;47.562;9.686;2022-10-16T04:42:53;30.58;;;28.77;;
56285;SDS011;42191;47.562;9.686;2022-10-16T04:45:19;32.05;;;29.95;;
56285;SDS011;42191;47.562;9.686;2022-10-16T04:47:45;32.35;;;30.05;;
56285;SDS011;42191;47.562;9.686;2022-10-16T04:50:11;30.98;;;29.08;;
56285;SDS011;42191;47.562;9.686;2022-10-16T04:52:37;31.65;;;29.75;;
56285;SDS011;42191;47.562;9.686;2022-10-16T04:55:04;31.15;;;29.17;;
56285;SDS011;42191;47.562;9.686;2022-10-16T04:57:30;31.10;;;28.95;;
56285;SDS011;42191;47.562;9.686;2022-10-16T04:59:58;30.92;;;29.05;;
56285;SDS011;42191;47.562;9.686;2022-10-16T05:02:24;31.88;;;29.98;;
56285;SDS011;42191;47.562;9.686;2022-10-16T05:04:51;29.42;;;27.67;;
56285;SDS011;42191;47.562;9.686;2022-10-16T05:07:17;32.40;;;30.38;;
56285;SDS011;42191;47.562;9.686;2022-10-16T05:09:43;31.60;;;29.70;;
56285;SDS011;42191;47.562;9.686;2022-10-16T05:12:09;31.73;;;29.83;;
56285;SDS011;42191;47.562;9.686;2022-10-16T05:14:35;30.95;;;28.92;;
56285;SDS011;42191;47.562;9.686;2022-10-16T05:17:01;32.13;;;30.17;;
56285;SDS011;42191;47.562;9.686;2022-10-16T05:19:28;30.73;;;28.73;;
56285;SDS011;42191;47.562;9.686;2022-10-16T05:21:54;31.42;;;29.33;;
56285;SDS011;42191;47.562;9.686;2022-10-16T05:24:20;29.05;;;27.35;;
56285;SDS011;42191;47.562;9.686;2022-10-16T05:26:46;30.60;;;28.80;;
56285;SDS011;42191;47.562;9.686;2022-10-16T05:29:12;30.63;;;28.83;;
56285;SDS011;42191;47.562;9.686;2022-10-16T05:31:39;31.00;;;28.95;;
56285;SDS011;42191;47.562;9.686;2022-10-16T05:34:05;30.88;;;29.08;;
56285;SDS011;42191;47.562;9.686;2022-10-16T05:36:31;30.02;;;28.00;;
56285;SDS011;42191;47.562;9.686;2022-10-16T05:38:57;32.25;;;30.13;;
56285;SDS011;42191;47.562;9.686;2022-10-16T05:41:23;30.45;;;28.65;;
56285;SDS011;42191;47.562;9.686;2022-10-16T05:43:51;32.30;;;30.27;;
56285;SDS011;42191;47.562;9.686;2022-10-16T05:46:17;29.63;;;27.80;;
56285;SDS011;42191;47.562;9.686;2022-10-16T05:48:44;30.10;;;28.30;;
56285;SDS011;42191;47.562;9.686;2022-10-16T05:51:11;31.92;;;30.02;;
56285;SDS011;42191;47.562;9.686;2022-10-16T05:53:39;32.90;;;30.90;;
56285;SDS011;42191;47.562;9.686;2022-10-16T05:56:06;32.78;;;30.77;;
56285;SDS011;42191;47.562;9.686;2022-10-16T05:58:35;31.45;;;29.55;;
56285;SDS011;42191;47.562;9.686;2022-10-16T06:01:12;30.25;;;28.45;;
56285;SDS011;42191;47.562;9.686;2022-10-16T06:03:40;31.92;;;30.02;;
56285;SDS011;42191;47.562;9.686;2022-10-16T06:06:13;31.42;;;29.52;;
56285;SDS011;42191;47.562;9.686;2022-10-16T06:08:41;30.85;;;28.98;;
56285;SDS011;42191;47.562;9.686;2022-10-16T06:11:11;30.70;;;28.63;;
56285;SDS011;42191;47.562;9.686;2022-10-16T06:13:39;32.45;;;30.45;;
56285;SDS011;42191;47.562;9.686;2022-10-16T06:16:07;29.00;;;27.20;;
56285;SDS011;42191;47.562;9.686;2022-10-16T06:18:34;30.45;;;28.45;;
56285;SDS011;42191;47.562;9.686;2022-10-16T06:21:06;31.35;;;29.45;;
56285;SDS011;42191;47.562;9.686;2022-10-16T06:23:33;31.75;;;29.75;;
56285;SDS011;42191;47.562;9.686;2022-10-16T06:26:06;32.17;;;30.27;;
56285;SDS011;42191;47.562;9.686;2022-10-16T06:28:37;31.25;;;29.25;;
56285;SDS011;42191;47.562;9.686;2022-10-16T06:31:04;30.23;;;28.38;;
56285;SDS011;42191;47.562;9.686;2022-10-16T06:33:32;31.30;;;29.50;;
56285;SDS011;42191;47.562;9.686;2022-10-16T06:36:09;32.92;;;30.90;;
56285;SDS011;42191;47.562;9.686;2022-10-16T06:38:36;32.28;;;30.17;;
56285;SDS011;42191;47.562;9.686;2022-10-16T06:41:03;33.05;;;30.92;;
56285;SDS011;42191;47.562;9.686;2022-10-16T06:43:30;31.42;;;29.40;;
56285;SDS011;42191;47.562;9.686;2022-10-16T06:45:57;31.95;;;29.95;;
56285;SDS011;42191;47.562;9.686;2022-10-16T06:48:25;30.48;;;28.45;;
56285;SDS011;42191;47.562;9.686;2022-10-16T06:51:02;31.83;;;29.48;;
56285;SDS011;42191;47.562;9.686;2022-10-16T06:53:31;29.77;;;27.98;;
56285;SDS011;42191;47.562;9.686;2022-10-16T06:56:06;30.40;;;28.55;;
56285;SDS011;42191;47.562;9.686;2022-10-16T06:58:32;31.60;;;29.60;;
56285;SDS011;42191;47.562;9.686;2022-10-16T07:00:58;33.30;;;31.20;;
56285;SDS011;42191;47.562;9.686;2022-10-16T07:03:24;31.83;;;29.92;;
56285;SDS011;42191;47.562;9.686;2022-10-16T07:05:51;31.08;;;29.25;;
56285;SDS011;42191;47.562;9.686;2022-10-16T07:08:17;30.45;;;28.65;;
56285;SDS011;42191;47.562;9.686;2022-10-16T07:10:43;29.92;;;28.15;;
56285;SDS011;42191;47.562;9.686;2022-10-16T07:13:09;31.90;;;29.80;;
56285;SDS011;42191;47.562;9.686;2022-10-16T07:15:38;30.60;;;28.70;;
56285;SDS011;42191;47.562;9.686;2022-10-16T07:18:04;30.98;;;28.90;;
56285;SDS011;42191;47.562;9.686;2022-10-16T07:20:31;29.77;;;27.98;;
56285;SDS011;42191;47.562;9.686;2022-10-16T07:22:57;29.67;;;27.88;;
56285;SDS011;42191;47.562;9.686;2022-10-16T07:25:23;31.85;;;29.85;;
56285;SDS011;42191;47.562;9.686;2022-10-16T07:27:49;31.75;;;29.85;;
56285;SDS011;42191;47.562;9.686;2022-10-16T07:30:15;30.00;;;28.20;;
56285;SDS011;42191;47.562;9.686;2022-10-16T07:32:41;30.15;;;28.35;;
56285;SDS011;42191;47.562;9.686;2022-10-16T07:35:07;29.10;;;27.40;;
56285;SDS011;42191;47.562;9.686;2022-10-16T07:37:34;28.88;;;27.13;;
56285;SDS011;42191;47.562;9.686;2022-10-16T07:40:00;29.40;;;27.70;;
56285;SDS011;42191;47.562;9.686;2022-10-16T07:42:26;30.77;;;28.85;;
56285;SDS011;42191;47.562;9.686;2022-10-16T07:44:53;31.85;;;29.95;;
56285;SDS011;42191;47.562;9.686;2022-10-16T07:47:19;34.88;;;32.38;;
56285;SDS011;42191;47.562;9.686;2022-10-16T07:49:45;31.77;;;29.70;;
56285;SDS011;42191;47.562;9.686;2022-10-16T07:52:11;31.00;;;29.00;;
56285;SDS011;42191;47.562;9.686;2022-10-16T07:54:37;31.83;;;29.75;;
56285;SDS011;42191;47.562;9.686;2022-10-16T07:57:04;31.17;;;28.90;;
56285;SDS011;42191;47.562;9.686;2022-10-16T07:59:30;31.45;;;29.45;;
56285;SDS011;42191;47.562;9.686;2022-10-16T08:01:56;29.63;;;27.75;;
56285;SDS011;42191;47.562;9.686;2022-10-16T08:04:22;29.63;;;27.63;;
56285;SDS011;42191;47.562;9.686;2022-10-16T08:06:48;30.33;;;28.17;;
56285;SDS011;42191;47.562;9.686;2022-10-16T08:09:14;30.75;;;28.92;;
56285;SDS011;42191;47.562;9.686;2022-10-16T08:11:40;29.48;;;27.67;;
56285;SDS011;42191;47.562;9.686;2022-10-16T08:14:06;29.92;;;28.02;;
56285;SDS011;42191;47.562;9.686;2022-10-16T08:16:33;29.77;;;28.00;;
56285;SDS011;42191;47.562;9.686;2022-10-16T08:18:59;28.88;;;26.80;;
56285;SDS011;42191;47.562;9.686;2022-10-16T08:21:25;29.83;;;27.83;;
56285;SDS011;42191;47.562;9.686;2022-10-16T08:23:52;29.08;;;27.27;;
56285;SDS011;42191;47.562;9.686;2022-10-16T08:26:19;29.30;;;27.42;;
56285;SDS011;42191;47.562;9.686;2022-10-16T08:28:48;30.73;;;28.73;;
56285;SDS011;42191;47.562;9.686;2022-10-16T08:31:16;28.83;;;27.13;;
56285;SDS011;42191;47.562;9.686;2022-10-16T08:33:42;30.73;;;28.85;;
56285;SDS011;42191;47.562;9.686;2022-10-16T08:36:11;30.08;;;28.05;;
56285;SDS011;42191;47.562;9.686;2022-10-16T08:38:37;29.95;;;27.95;;
56285;SDS011;42191;47.562;9.686;2022-10-16T08:49:25;29.98;;;28.17;;
56285;SDS011;42191;47.562;9.686;2022-10-16T08:51:52;28.27;;;26.27;;
56285;SDS011;42191;47.562;9.686;2022-10-16T08:54:32;28.77;;;26.98;;
56285;SDS011;42191;47.562;9.686;2022-10-16T08:57:19;32.20;;;30.20;;
56285;SDS011;42191;47.562;9.686;2022-10-16T08:59:46;29.23;;;27.42;;
56285;SDS011;42191;47.562;9.686;2022-10-16T09:02:37;31.10;;;29.10;;
56285;SDS011;42191;47.562;9.686;2022-10-16T09:08:46;29.00;;;27.30;;
56285;SDS011;42191;47.562;9.686;2022-10-16T09:10:59;31.00;;;29.00;;
56285;SDS011;42191;47.562;9.686;2022-10-16T09:16:36;32.00;;;29.63;;
56285;SDS011;42191;47.562;9.686;2022-10-16T09:22:04;31.70;;;29.80;;
56285;SDS011;42191;47.562;9.686;2022-10-16T09:24:39;30.40;;;28.60;;
56285;SDS011;42191;47.562;9.686;2022-10-16T09:27:07;29.90;;;27.80;;
56285;SDS011;42191;47.562;9.686;2022-10-16T09:29:36;31.58;;;29.48;;
56285;SDS011;42191;47.562;9.686;2022-10-16T09:32:09;32.40;;;30.30;;
56285;SDS011;42191;47.562;9.686;2022-10-16T09:34:45;30.52;;;28.58;;
56285;SDS011;42191;47.562;9.686;2022-10-16T09:37:17;31.65;;;29.58;;
56285;SDS011;42191;47.562;9.686;2022-10-16T09:39:48;29.75;;;27.83;;
56285;SDS011;42191;47.562;9.686;2022-10-16T09:42:17;32.42;;;30.42;;
56285;SDS011;42191;47.562;9.686;2022-10-16T09:44:49;28.83;;;26.92;;
56285;SDS011;42191;47.562;9.686;2022-10-16T09:47:20;29.90;;;27.83;;
56285;SDS011;42191;47.562;9.686;2022-10-16T09:49:58;30.83;;;28.92;;
56285;SDS011;42191;47.562;9.686;2022-10-16T09:52:30;28.30;;;26.60;;
56285;SDS011;42191;47.562;9.686;2022-10-16T09:54:57;28.60;;;26.80;;
56285;SDS011;42191;47.562;9.686;2022-10-16T09:57:25;28.83;;;26.73;;
56285;SDS011;42191;47.562;9.686;2022-10-16T09:59:53;31.13;;;28.92;;
56285;SDS011;42191;47.562;9.686;2022-10-16T10:02:36;28.95;;;27.25;;
56285;SDS011;42191;47.562;9.686;2022-10-16T10:05:04;30.50;;;28.60;;
56285;SDS011;42191;47.562;9.686;2022-10-16T10:07:42;28.85;;;27.15;;
56285;SDS011;42191;47.562;9.686;2022-10-16T10:10:19;30.50;;;28.33;;
56285;SDS011;42191;47.562;9.686;2022-10-16T10:12:47;30.20;;;28.30;;
56285;SDS011;42191;47.562;9.686;2022-10-16T10:15:14;31.75;;;29.75;;
56285;SDS011;42191;47.562;9.686;2022-10-16T10:20:35;28.80;;;26.45;;
56285;SDS011;42191;47.562;9.686;2022-10-16T10:23:20;28.58;;;26.88;;
56285;SDS011;42191;47.562;9.686;2022-10-16T10:28:46;29.73;;;27.63;;
56285;SDS011;42191;47.562;9.686;2022-10-16T10:31:27;28.77;;;26.98;;
56285;SDS011;42191;47.562;9.686;2022-10-16T10:36:59;30.75;;;28.65;;
56285;SDS011;42191;47.562;9.686;2022-10-16T10:39:36;30.58;;;28.75;;
56285;SDS011;42191;47.562;9.686;2022-10-16T10:42:46;31.42;;;29.42;;
56285;SDS011;42191;47.562;9.686;2022-10-16T10:45:44;28.48;;;26.58;;
56285;SDS011;42191;47.562;9.686;2022-10-16T10:51:17;30.50;;;27.77;;
56285;SDS011;42191;47.562;9.686;2022-10-16T10:54:04;30.88;;;28.73;;
56285;SDS011;42191;47.562;9.686;2022-10-16T10:56:42;30.45;;;28.63;;
56285;SDS011;42191;47.562;9.686;2022-10-16T10:59:23;30.88;;;28.52;;
56285;SDS011;42191;47.562;9.686;2022-10-16T11:02:01;29.42;;;27.63;;
56285;SDS011;42191;47.562;9.686;2022-10-16T11:07:26;29.45;;;27.30;;
56285;SDS011;42191;47.562;9.686;2022-10-16T11:09:58;28.60;;;26.58;;
56285;SDS011;42191;47.562;9.686;2022-10-16T11:12:34;29.23;;;27.15;;
56285;SDS011;42191;47.562;9.686;2022-10-16T11:15:19;28.85;;;27.15;;
56285;SDS011;42191;47.562;9.686;2022-10-16T11:18:06;30.75;;;28.75;;
56285;SDS011;42191;47.562;9.686;2022-10-16T11:20:40;30.05;;;28.05;;
56285;SDS011;42191;47.562;9.686;2022-10-16T11:23:25;30.50;;;28.60;;
56285;SDS011;42191;47.562;9.686;2022-10-16T11:25:53;29.55;;;27.75;;
56285;SDS011;42191;47.562;9.686;2022-10-16T11:28:35;29.38;;;27.58;;
56285;SDS011;42191;47.562;9.686;2022-10-16T11:31:08;28.88;;;27.08;;
56285;SDS011;42191;47.562;9.686;2022-10-16T11:33:41;29.98;;;28.17;;
56285;SDS011;42191;47.562;9.686;2022-10-16T11:36:22;30.13;;;28.23;;
56285;SDS011;42191;47.562;9.686;2022-10-16T11:47:07;30.35;;;28.42;;
56285;SDS011;42191;47.562;9.686;2022-10-16T11:49:44;29.92;;;27.95;;
56285;SDS011;42191;47.562;9.686;2022-10-16T11:52:33;30.98;;;28.98;;
56285;SDS011;42191;47.562;9.686;2022-10-16T11:55:12;29.05;;;26.65;;
56285;SDS011;42191;47.562;9.686;2022-10-16T11:57:46;29.60;;;27.67;;
56285;SDS011;42191;47.562;9.686;2022-10-16T12:03:08;30.15;;;28.25;;
56285;SDS011;42191;47.562;9.686;2022-10-16T12:06:00;28.23;;;26.42;;
56285;SDS011;42191;47.562;9.686;2022-10-16T12:08:39;29.58;;;27.48;;
56285;SDS011;42191;47.562;9.686;2022-10-16T12:11:09;27.17;;;25.35;;
56285;SDS011;42191;47.562;9.686;2022-10-16T12:19:23;29.23;;;27.52;;
56285;SDS011;42191;47.562;9.686;2022-10-16T12:21:52;27.48;;;25.75;;
56285;SDS011;42191;47.562;9.686;2022-10-16T12:24:32;26.83;;;24.92;;
56285;SDS011;42191;47.562;9.686;2022-10-16T12:27:03;28.60;;;26.90;;
56285;SDS011;42191;47.562;9.686;2022-10-16T12:29:38;27.80;;;26.10;;
56285;SDS011;42191;47.562;9.686;2022-10-16T12:34:57;28.38;;;26.48;;
56285;SDS011;42191;47.562;9.686;2022-10-16T12:37:25;28.35;;;26.45;;
56285;SDS011;42191;47.562;9.686;2022-10-16T12:40:10;28.77;;;26.75;;
56285;SDS011;42191;47.562;9.686;2022-10-16T12:42:48;28.42;;;26.63;;
56285;SDS011;42191;47.562;9.686;2022-10-16T12:45:28;28.48;;;26.67;;
56285;SDS011;42191;47.562;9.686;2022-10-16T12:47:56;28.15;;;26.25;;
56285;SDS011;42191;47.562;9.686;2022-10-16T12:50:45;27.65;;;25.83;;
56285;SDS011;42191;47.562;9.686;2022-10-16T12:53:17;27.58;;;25.65;;
56285;SDS011;42191;47.562;9.686;2022-10-16T12:55:57;30.38;;;28.27;;
56285;SDS011;42191;47.562;9.686;2022-10-16T12:58:34;28.38;;;26.23;;
56285;SDS011;42191;47.562;9.686;2022-10-16T13:03:57;28.13;;;26.27;;
56285;SDS011;42191;47.562;9.686;2022-10-16T13:06:33;27.88;;;25.77;;
56285;SDS011;42191;47.562;9.686;2022-10-16T13:11:57;27.58;;;25.83;;
56285;SDS011;42191;47.562;9.686;2022-10-16T13:20:03;28.50;;;26.55;;
56285;SDS011;42191;47.562;9.686;2022-10-16T13:26:09;27.55;;;25.75;;
56285;SDS011;42191;47.562;9.686;2022-10-16T13:28:59;27.20;;;25.27;;
56285;SDS011;42191;47.562;9.686;2022-10-16T13:35:58;25.90;;;24.02;;
56285;SDS011;42191;47.562;9.686;2022-10-16T13:39:20;26.95;;;25.15;;
56285;SDS011;42191;47.562;9.686;2022-10-16T13:46:12;25.08;;;23.27;;
56285;SDS011;42191;47.562;9.686;2022-10-16T13:49:41;25.08;;;23.25;;
56285;SDS011;42191;47.562;9.686;2022-10-16T13:53:21;24.13;;;22.58;;
56285;SDS011;42191;47.562;9.686;2022-10-16T13:56:41;24.02;;;22.52;;
56285;SDS011;42191;47.562;9.686;2022-10-16T13:59:56;24.02;;;22.42;;
56285;SDS011;42191;47.562;9.686;2022-10-16T14:02:35;23.67;;;22.15;;
56285;SDS011;42191;47.562;9.686;2022-10-16T14:05:04;23.27;;;21.87;;
56285;SDS011;42191;47.562;9.686;2022-10-16T14:07:35;23.95;;;22.42;;
56285;SDS011;42191;47.562;9.686;2022-10-16T14:10:04;23.92;;;22.42;;
56285;SDS011;42191;47.562;9.686;2022-10-16T14:12:33;24.77;;;23.17;;
56285;SDS011;42191;47.562;9.686;2022-10-16T14:15:00;23.45;;;21.95;;
56285;SDS011;42191;47.562;9.686;2022-10-16T14:17:31;23.35;;;21.90;;
56285;SDS011;42191;47.562;9.686;2022-10-16T14:20:00;24.33;;;22.73;;
56285;SDS011;42191;47.562;9.686;2022-10-16T14:25:25;23.85;;;22.35;;
56285;SDS011;42191;47.562;9.686;2022-10-16T14:27:58;24.40;;;22.85;;
56285;SDS011;42191;47.562;9.686;2022-10-16T14:30:27;24.77;;;22.83;;
56285;SDS011;42191;47.562;9.686;2022-10-16T14:35:32;24.58;;;23.00;;
56285;SDS011;42191;47.562;9.686;2022-10-16T14:38:00;25.50;;;23.80;;
56285;SDS011;42191;47.562;9.686;2022-10-16T14:40:29;25.08;;;23.38;;
56285;SDS011;42191;47.562;9.686;2022-10-16T14:42:56;23.77;;;22.27;;
56285;SDS011;42191;47.562;9.686;2022-10-16T14:45:24;24.73;;;23.13;;
56285;SDS011;42191;47.562;9.686;2022-10-16T14:47:54;24.60;;;23.10;;
56285;SDS011;42191;47.562;9.686;2022-10-16T14:50:22;24.70;;;23.20;;
56285;SDS011;42191;47.562;9.686;2022-10-16T14:52:48;24.67;;;22.92;;
56285;SDS011;42191;47.562;9.686;2022-10-16T14:55:14;24.38;;;22.88;;
56285;SDS011;42191;47.562;9.686;2022-10-16T14:57:42;24.20;;;22.70;;
56285;SDS011;42191;47.562;9.686;2022-10-16T15:00:22;24.73;;;22.95;;
56285;SDS011;42191;47.562;9.686;2022-10-16T15:02:50;24.20;;;22.73;;
56285;SDS011;42191;47.562;9.686;2022-10-16T15:05:18;25.15;;;23.65;;
56285;SDS011;42191;47.562;9.686;2022-10-16T15:07:47;25.05;;;23.45;;
56285;SDS011;42191;47.562;9.686;2022-10-16T15:10:14;24.50;;;22.83;;
56285;SDS011;42191;47.562;9.686;2022-10-16T15:12:44;24.20;;;22.35;;
56285;SDS011;42191;47.562;9.686;2022-10-16T15:17:52;23.88;;;22.45;;
56285;SDS011;42191;47.562;9.686;2022-10-16T15:20:26;24.13;;;22.52;;
56285;SDS011;42191;47.562;9.686;2022-10-16T15:22:53;25.27;;;23.67;;
56285;SDS011;42191;47.562;9.686;2022-10-16T15:27:59;24.02;;;22.52;;
56285;SDS011;42191;47.562;9.686;2022-10-16T15:30:26;24.15;;;22.55;;
56285;SDS011;42191;47.562;9.686;2022-10-16T15:32:53;24.35;;;22.75;;
56285;SDS011;42191;47.562;9.686;2022-10-16T15:35:19;24.73;;;23.02;;
56285;SDS011;42191;47.562;9.686;2022-10-16T15:37:46;25.63;;;23.90;;
56285;SDS011;42191;47.562;9.686;2022-10-16T15:40:13;25.40;;;23.80;;
56285;SDS011;42191;47.562;9.686;2022-10-16T15:42:39;25.38;;;23.77;;
56285;SDS011;42191;47.562;9.686;2022-10-16T15:45:06;26.70;;;24.80;;
56285;SDS011;42191;47.562;9.686;2022-10-16T15:47:33;25.60;;;24.00;;
56285;SDS011;42191;47.562;9.686;2022-10-16T15:49:59;25.73;;;23.92;;
56285;SDS011;42191;47.562;9.686;2022-10-16T15:52:25;25.17;;;23.58;;
56285;SDS011;42191;47.562;9.686;2022-10-16T15:54:53;26.88;;;25.08;;
56285;SDS011;42191;47.562;9.686;2022-10-16T15:57:19;26.10;;;24.50;;
56285;SDS011;42191;47.562;9.686;2022-10-16T15:59:46;26.77;;;25.13;;
56285;SDS011;42191;47.562;9.686;2022-10-16T16:02:12;26.73;;;25.13;;
56285;SDS011;42191;47.562;9.686;2022-10-16T16:04:38;26.48;;;24.67;;
56285;SDS011;42191;47.562;9.686;2022-10-16T16:07:04;26.83;;;25.15;;
56285;SDS011;42191;47.562;9.686;2022-10-16T16:09:32;26.95;;;24.63;;
56285;SDS011;42191;47.562;9.686;2022-10-16T16:11:59;26.60;;;24.80;;
56285;SDS011;42191;47.562;9.686;2022-10-16T16:14:26;26.77;;;25.10;;
56285;SDS011;42191;47.562;9.686;2022-10-16T16:16:53;28.00;;;26.08;;
56285;SDS011;42191;47.562;9.686;2022-10-16T16:19:20;26.90;;;25.10;;
56285;SDS011;42191;47.562;9.686;2022-10-16T16:21:47;26.65;;;24.85;;
56285;SDS011;42191;47.562;9.686;2022-10-16T16:24:14;28.20;;;26.30;;